Tiptonville, TN

4:33 PM CDT on March 31, 2015 (GMT -0500)
Arkansas International | | Change Station
CLOSE
Current Station
Airport
Location: Blytheville,
Elevation: 256 ft
Nearby Weather Stations
Active Advisory: Flood Advisory

Elev 256 ft 35.96 °N, 89.94 °W | Updated 43 minutes ago

Clear
Clear
81 °F
Feels Like 80 °F
N
7
Wind Variable Wind from SW

Today
High -- | Low -- °F
--% Chance of Precip.
Yesterday
High -- | Low -- °F
Precip. -- in
6:45 AM 7:18 PM
Waxing Gibbous, 89% visible
Pressure 29.89 in
Visibility 10.0 miles
Clouds Scattered Clouds 4800 ft
Heat Index 80 °F
Dew Point 54 °F
Humidity 39%
Rainfall 0.00 in
Snow Depth Not available.
UV 4 out of 12
Pollen 10.70 out of 12
Air Quality Not available.
Flu Activity Not available.
METAR KBYH 312050Z 22006KT 10SM SCT048 27/12 A2989

More Conditions Fewer Conditions

Pressure 29.89 in
Visibility 10.0 miles
Clouds Scattered Clouds 4800 ft
Heat Index 80 °F
Dew Point 54 °F
Humidity 39%
Rainfall 0.00 in
Snow Depth Not available.
UV 4 out of 12
Pollen 10.70 out of 12
Air Quality Not available.
Flu Activity Not available.
METAR KBYH 312050Z 22006KT 10SM SCT048 27/12 A2989

More Conditions Fewer Conditions

10-Day Weather Forecast

Almanac

Astronomy

Mar. 31, 2015 Rise Set
Actual Time
Civil Twilight
Nautical Twilight
Astronomical Twilight
Moon
Length of Visible Light
Length of Day
Tomorrow will be .
, % of the Moon is Illuminated

Today's Extremes

State Highs State Lows

Community

WunderPhotos

Upload Photos

1,809,842 photos uploaded!

WunderBlogs® & News

Nearby

Air Quality

  Air Quality AQ Index Pollutant
Not available.

Snow Depth

Station Depth Elevation

Earthquake Activity

City Distance Mag. Time & Date
Minimum magnitude displayed is 2.5.

Coastal Water Temperatures

Place Temperature

Stations

Nearby Weather Stations

Station Location Temp. Windchill Dew Point Humidity Wind Precip. Elev Updated Type
                   
Flood Advisory
Statement as of 11:39 AM CDT on March 31, 2015

The National Weather Service in Memphis TN has issued a
* Flood Advisory for
the Mississippi River at Caruthersville
* from Tuesday March 31 until Saturday April 04.
* At 11 am Tuesday the stage was 31.4 feet.
* Flood stage is 32.0 feet.
* Forecast... the river will slightly fall to near 31.1 feet Tuesday March 31.
* At 31.0 feet... in Arkansas, Road and field flooding is widespread
at Cottonwood Point. Access roads off Arkansas Road 362 are
flooding. In Tennessee, grain shipping facility south of Heloise is
mostly under water. Dee Webb Road and Watkins Road are flooding,
along with Brady Ridge Road. Barr Road north of wardlow pocket area
is being covered.


Lat... Lon 3623 8977 3623 8948 3606 8950 3595 8948
      3582 8956 3582 8985